sensor_id;sensor_type;location;lat;lon;timestamp;P1;durP1;ratioP1;P2;durP2;ratioP2
78416;SDS011;67715;46.170;6.140;2023-07-29T00:01:17;5.77;;;3.20;;
78416;SDS011;67715;46.170;6.140;2023-07-29T00:03:42;8.33;;;3.43;;
78416;SDS011;67715;46.170;6.140;2023-07-29T00:06:09;4.80;;;3.37;;
78416;SDS011;67715;46.170;6.140;2023-07-29T00:08:34;5.82;;;2.97;;
78416;SDS011;67715;46.170;6.140;2023-07-29T00:10:59;8.87;;;4.33;;
78416;SDS011;67715;46.170;6.140;2023-07-29T00:13:25;5.03;;;3.40;;
78416;SDS011;67715;46.170;6.140;2023-07-29T00:15:52;5.85;;;3.92;;
78416;SDS011;67715;46.170;6.140;2023-07-29T00:18:19;5.57;;;3.40;;
78416;SDS011;67715;46.170;6.140;2023-07-29T00:20:44;4.40;;;3.30;;
78416;SDS011;67715;46.170;6.140;2023-07-29T00:23:10;5.93;;;3.85;;
78416;SDS011;67715;46.170;6.140;2023-07-29T00:25:35;4.45;;;3.20;;
78416;SDS011;67715;46.170;6.140;2023-07-29T00:28:01;4.73;;;3.90;;
78416;SDS011;67715;46.170;6.140;2023-07-29T00:30:26;5.60;;;3.83;;
78416;SDS011;67715;46.170;6.140;2023-07-29T00:32:51;5.20;;;3.03;;
78416;SDS011;67715;46.170;6.140;2023-07-29T00:35:17;5.50;;;3.60;;
78416;SDS011;67715;46.170;6.140;2023-07-29T00:37:42;7.78;;;3.85;;
78416;SDS011;67715;46.170;6.140;2023-07-29T00:40:09;5.23;;;3.93;;
78416;SDS011;67715;46.170;6.140;2023-07-29T00:42:40;6.57;;;3.88;;
78416;SDS011;67715;46.170;6.140;2023-07-29T00:45:07;5.45;;;3.97;;
78416;SDS011;67715;46.170;6.140;2023-07-29T00:47:33;4.25;;;3.78;;
78416;SDS011;67715;46.170;6.140;2023-07-29T00:49:59;5.97;;;3.57;;
78416;SDS011;67715;46.170;6.140;2023-07-29T00:52:24;4.32;;;3.80;;
78416;SDS011;67715;46.170;6.140;2023-07-29T00:54:49;5.00;;;3.70;;
78416;SDS011;67715;46.170;6.140;2023-07-29T00:57:15;7.40;;;4.23;;
78416;SDS011;67715;46.170;6.140;2023-07-29T00:59:41;5.65;;;4.28;;
78416;SDS011;67715;46.170;6.140;2023-07-29T01:02:06;5.93;;;4.20;;
78416;SDS011;67715;46.170;6.140;2023-07-29T01:04:32;6.75;;;3.85;;
78416;SDS011;67715;46.170;6.140;2023-07-29T01:12:08;7.55;;;4.43;;
78416;SDS011;67715;46.170;6.140;2023-07-29T01:14:39;4.68;;;3.63;;
78416;SDS011;67715;46.170;6.140;2023-07-29T01:17:09;6.03;;;3.80;;
78416;SDS011;67715;46.170;6.140;2023-07-29T01:19:55;5.10;;;4.00;;
78416;SDS011;67715;46.170;6.140;2023-07-29T01:22:35;6.00;;;4.03;;
78416;SDS011;67715;46.170;6.140;2023-07-29T01:25:01;5.60;;;4.15;;
78416;SDS011;67715;46.170;6.140;2023-07-29T01:27:27;6.10;;;3.78;;
78416;SDS011;67715;46.170;6.140;2023-07-29T01:29:53;7.67;;;4.63;;
78416;SDS011;67715;46.170;6.140;2023-07-29T01:32:20;5.57;;;4.00;;
78416;SDS011;67715;46.170;6.140;2023-07-29T01:35:10;5.43;;;4.05;;
78416;SDS011;67715;46.170;6.140;2023-07-29T01:37:41;6.55;;;3.60;;
78416;SDS011;67715;46.170;6.140;2023-07-29T01:40:06;5.65;;;4.07;;
78416;SDS011;67715;46.170;6.140;2023-07-29T01:42:33;7.53;;;4.10;;
78416;SDS011;67715;46.170;6.140;2023-07-29T01:44:59;6.65;;;4.18;;
78416;SDS011;67715;46.170;6.140;2023-07-29T01:47:24;4.75;;;3.63;;
78416;SDS011;67715;46.170;6.140;2023-07-29T01:49:50;5.65;;;3.80;;
78416;SDS011;67715;46.170;6.140;2023-07-29T01:52:15;5.07;;;3.43;;
78416;SDS011;67715;46.170;6.140;2023-07-29T01:54:40;7.30;;;4.00;;
78416;SDS011;67715;46.170;6.140;2023-07-29T01:57:06;4.57;;;3.57;;
78416;SDS011;67715;46.170;6.140;2023-07-29T01:59:31;4.57;;;3.40;;
78416;SDS011;67715;46.170;6.140;2023-07-29T02:01:56;4.60;;;3.80;;
78416;SDS011;67715;46.170;6.140;2023-07-29T02:04:22;5.03;;;3.27;;
78416;SDS011;67715;46.170;6.140;2023-07-29T02:06:47;5.35;;;4.15;;
78416;SDS011;67715;46.170;6.140;2023-07-29T02:09:12;6.27;;;3.80;;
78416;SDS011;67715;46.170;6.140;2023-07-29T02:11:38;6.40;;;3.87;;
78416;SDS011;67715;46.170;6.140;2023-07-29T02:14:03;3.97;;;3.57;;
78416;SDS011;67715;46.170;6.140;2023-07-29T02:16:28;6.17;;;3.60;;
78416;SDS011;67715;46.170;6.140;2023-07-29T02:18:54;8.30;;;4.18;;
78416;SDS011;67715;46.170;6.140;2023-07-29T02:21:19;5.18;;;3.40;;
78416;SDS011;67715;46.170;6.140;2023-07-29T02:23:45;4.70;;;3.95;;
78416;SDS011;67715;46.170;6.140;2023-07-29T02:26:10;4.72;;;3.70;;
78416;SDS011;67715;46.170;6.140;2023-07-29T02:28:36;8.18;;;3.75;;
78416;SDS011;67715;46.170;6.140;2023-07-29T02:31:20;6.17;;;3.87;;
78416;SDS011;67715;46.170;6.140;2023-07-29T02:33:46;5.05;;;3.70;;
78416;SDS011;67715;46.170;6.140;2023-07-29T02:36:12;4.63;;;3.30;;
78416;SDS011;67715;46.170;6.140;2023-07-29T02:38:38;6.00;;;3.67;;
78416;SDS011;67715;46.170;6.140;2023-07-29T02:41:03;5.20;;;4.07;;
78416;SDS011;67715;46.170;6.140;2023-07-29T02:43:29;6.20;;;3.92;;
78416;SDS011;67715;46.170;6.140;2023-07-29T02:45:54;5.83;;;3.27;;
78416;SDS011;67715;46.170;6.140;2023-07-29T02:48:19;6.03;;;3.43;;
78416;SDS011;67715;46.170;6.140;2023-07-29T02:50:45;6.30;;;4.00;;
78416;SDS011;67715;46.170;6.140;2023-07-29T02:53:10;5.83;;;3.33;;
78416;SDS011;67715;46.170;6.140;2023-07-29T02:55:38;3.93;;;3.50;;
78416;SDS011;67715;46.170;6.140;2023-07-29T02:58:04;4.57;;;3.35;;
78416;SDS011;67715;46.170;6.140;2023-07-29T03:00:31;4.23;;;3.30;;
78416;SDS011;67715;46.170;6.140;2023-07-29T03:02:57;4.05;;;3.40;;
78416;SDS011;67715;46.170;6.140;2023-07-29T03:05:23;6.33;;;3.00;;
78416;SDS011;67715;46.170;6.140;2023-07-29T03:07:48;4.07;;;2.80;;
78416;SDS011;67715;46.170;6.140;2023-07-29T03:10:13;3.67;;;2.50;;
78416;SDS011;67715;46.170;6.140;2023-07-29T03:12:40;5.75;;;3.00;;
78416;SDS011;67715;46.170;6.140;2023-07-29T03:15:05;3.67;;;2.95;;
78416;SDS011;67715;46.170;6.140;2023-07-29T03:17:31;3.30;;;2.80;;
78416;SDS011;67715;46.170;6.140;2023-07-29T03:19:56;3.83;;;2.77;;
78416;SDS011;67715;46.170;6.140;2023-07-29T03:22:21;5.53;;;2.83;;
78416;SDS011;67715;46.170;6.140;2023-07-29T03:24:47;6.70;;;2.90;;
78416;SDS011;67715;46.170;6.140;2023-07-29T03:27:12;5.20;;;3.03;;
78416;SDS011;67715;46.170;6.140;2023-07-29T03:29:39;5.30;;;3.00;;
78416;SDS011;67715;46.170;6.140;2023-07-29T03:32:04;4.67;;;2.77;;
78416;SDS011;67715;46.170;6.140;2023-07-29T03:34:30;4.55;;;2.80;;
78416;SDS011;67715;46.170;6.140;2023-07-29T03:36:55;6.60;;;2.73;;
78416;SDS011;67715;46.170;6.140;2023-07-29T03:39:20;4.90;;;3.10;;
78416;SDS011;67715;46.170;6.140;2023-07-29T03:41:46;4.27;;;2.83;;
78416;SDS011;67715;46.170;6.140;2023-07-29T03:44:11;4.63;;;2.60;;
78416;SDS011;67715;46.170;6.140;2023-07-29T03:46:36;4.07;;;2.83;;
78416;SDS011;67715;46.170;6.140;2023-07-29T03:49:02;3.60;;;3.07;;
78416;SDS011;67715;46.170;6.140;2023-07-29T03:51:28;5.40;;;2.97;;
78416;SDS011;67715;46.170;6.140;2023-07-29T03:53:53;4.35;;;2.45;;
78416;SDS011;67715;46.170;6.140;2023-07-29T03:56:18;5.73;;;3.10;;
78416;SDS011;67715;46.170;6.140;2023-07-29T03:58:45;3.40;;;2.67;;
78416;SDS011;67715;46.170;6.140;2023-07-29T04:01:10;5.72;;;2.90;;
78416;SDS011;67715;46.170;6.140;2023-07-29T04:03:35;3.87;;;2.60;;
78416;SDS011;67715;46.170;6.140;2023-07-29T04:06:01;4.47;;;3.20;;
78416;SDS011;67715;46.170;6.140;2023-07-29T04:08:26;5.63;;;3.35;;
78416;SDS011;67715;46.170;6.140;2023-07-29T04:10:52;3.55;;;2.60;;
78416;SDS011;67715;46.170;6.140;2023-07-29T04:13:17;3.17;;;2.63;;
78416;SDS011;67715;46.170;6.140;2023-07-29T04:15:42;3.77;;;2.87;;
78416;SDS011;67715;46.170;6.140;2023-07-29T04:18:08;5.00;;;3.43;;
78416;SDS011;67715;46.170;6.140;2023-07-29T04:20:33;3.50;;;2.37;;
78416;SDS011;67715;46.170;6.140;2023-07-29T04:22:58;4.03;;;3.20;;
78416;SDS011;67715;46.170;6.140;2023-07-29T04:25:24;5.63;;;2.73;;
78416;SDS011;67715;46.170;6.140;2023-07-29T04:27:49;6.13;;;3.30;;
78416;SDS011;67715;46.170;6.140;2023-07-29T04:30:14;4.20;;;3.40;;
78416;SDS011;67715;46.170;6.140;2023-07-29T04:32:40;7.40;;;2.92;;
78416;SDS011;67715;46.170;6.140;2023-07-29T04:35:07;5.15;;;3.28;;
78416;SDS011;67715;46.170;6.140;2023-07-29T04:37:33;3.42;;;2.63;;
78416;SDS011;67715;46.170;6.140;2023-07-29T04:39:58;4.27;;;3.40;;
78416;SDS011;67715;46.170;6.140;2023-07-29T04:42:23;4.27;;;3.10;;
78416;SDS011;67715;46.170;6.140;2023-07-29T04:44:49;5.88;;;4.00;;
78416;SDS011;67715;46.170;6.140;2023-07-29T04:47:14;4.13;;;2.63;;
78416;SDS011;67715;46.170;6.140;2023-07-29T04:49:39;4.25;;;3.22;;
78416;SDS011;67715;46.170;6.140;2023-07-29T04:52:05;4.73;;;3.07;;
78416;SDS011;67715;46.170;6.140;2023-07-29T04:54:30;3.97;;;2.75;;
78416;SDS011;67715;46.170;6.140;2023-07-29T04:56:56;5.63;;;3.60;;
78416;SDS011;67715;46.170;6.140;2023-07-29T04:59:21;5.85;;;3.47;;
78416;SDS011;67715;46.170;6.140;2023-07-29T05:01:46;5.47;;;3.10;;
78416;SDS011;67715;46.170;6.140;2023-07-29T05:04:12;6.30;;;3.40;;
78416;SDS011;67715;46.170;6.140;2023-07-29T05:06:37;5.97;;;2.95;;
78416;SDS011;67715;46.170;6.140;2023-07-29T05:09:13;4.55;;;3.00;;
78416;SDS011;67715;46.170;6.140;2023-07-29T05:11:39;4.22;;;3.05;;
78416;SDS011;67715;46.170;6.140;2023-07-29T05:14:04;5.80;;;3.30;;
78416;SDS011;67715;46.170;6.140;2023-07-29T05:16:31;4.90;;;3.08;;
78416;SDS011;67715;46.170;6.140;2023-07-29T05:18:56;3.93;;;2.73;;
78416;SDS011;67715;46.170;6.140;2023-07-29T05:21:21;4.43;;;3.35;;
78416;SDS011;67715;46.170;6.140;2023-07-29T05:23:47;3.73;;;3.20;;
78416;SDS011;67715;46.170;6.140;2023-07-29T05:26:12;3.97;;;3.30;;
78416;SDS011;67715;46.170;6.140;2023-07-29T05:28:37;3.30;;;2.90;;
78416;SDS011;67715;46.170;6.140;2023-07-29T05:31:03;4.32;;;3.25;;
78416;SDS011;67715;46.170;6.140;2023-07-29T05:33:28;3.70;;;2.97;;
78416;SDS011;67715;46.170;6.140;2023-07-29T05:35:54;6.57;;;3.50;;
78416;SDS011;67715;46.170;6.140;2023-07-29T05:38:19;5.05;;;3.20;;
78416;SDS011;67715;46.170;6.140;2023-07-29T05:40:44;6.03;;;3.37;;
78416;SDS011;67715;46.170;6.140;2023-07-29T05:43:10;5.20;;;3.22;;
78416;SDS011;67715;46.170;6.140;2023-07-29T05:45:35;5.65;;;2.70;;
78416;SDS011;67715;46.170;6.140;2023-07-29T05:48:01;5.53;;;2.83;;
78416;SDS011;67715;46.170;6.140;2023-07-29T05:50:26;6.50;;;3.30;;
78416;SDS011;67715;46.170;6.140;2023-07-29T05:52:51;4.10;;;2.83;;
78416;SDS011;67715;46.170;6.140;2023-07-29T05:55:17;5.83;;;3.47;;
78416;SDS011;67715;46.170;6.140;2023-07-29T05:57:42;8.63;;;3.20;;
78416;SDS011;67715;46.170;6.140;2023-07-29T06:00:07;4.80;;;3.30;;
78416;SDS011;67715;46.170;6.140;2023-07-29T06:02:33;6.82;;;2.90;;
78416;SDS011;67715;46.170;6.140;2023-07-29T06:04:58;5.10;;;3.20;;
78416;SDS011;67715;46.170;6.140;2023-07-29T06:07:24;4.80;;;3.40;;
78416;SDS011;67715;46.170;6.140;2023-07-29T06:09:52;5.10;;;3.40;;
78416;SDS011;67715;46.170;6.140;2023-07-29T06:12:20;3.97;;;2.80;;
78416;SDS011;67715;46.170;6.140;2023-07-29T06:14:45;3.77;;;2.97;;
78416;SDS011;67715;46.170;6.140;2023-07-29T06:17:10;4.40;;;2.90;;
78416;SDS011;67715;46.170;6.140;2023-07-29T06:19:36;4.25;;;3.03;;
78416;SDS011;67715;46.170;6.140;2023-07-29T06:22:01;4.15;;;2.60;;
78416;SDS011;67715;46.170;6.140;2023-07-29T06:24:27;3.55;;;2.97;;
78416;SDS011;67715;46.170;6.140;2023-07-29T06:26:52;4.63;;;3.03;;
78416;SDS011;67715;46.170;6.140;2023-07-29T06:29:18;3.40;;;3.00;;
78416;SDS011;67715;46.170;6.140;2023-07-29T06:31:43;5.28;;;3.30;;
78416;SDS011;67715;46.170;6.140;2023-07-29T06:34:08;3.90;;;3.10;;
78416;SDS011;67715;46.170;6.140;2023-07-29T06:36:34;4.83;;;3.10;;
78416;SDS011;67715;46.170;6.140;2023-07-29T06:38:59;4.50;;;2.93;;
78416;SDS011;67715;46.170;6.140;2023-07-29T06:41:24;3.30;;;3.00;;
78416;SDS011;67715;46.170;6.140;2023-07-29T06:43:49;4.80;;;3.00;;
78416;SDS011;67715;46.170;6.140;2023-07-29T06:46:15;6.50;;;3.03;;
78416;SDS011;67715;46.170;6.140;2023-07-29T06:48:40;4.47;;;3.30;;
78416;SDS011;67715;46.170;6.140;2023-07-29T06:51:05;3.30;;;2.70;;
78416;SDS011;67715;46.170;6.140;2023-07-29T06:53:31;4.03;;;2.97;;
78416;SDS011;67715;46.170;6.140;2023-07-29T06:55:56;4.93;;;3.10;;
78416;SDS011;67715;46.170;6.140;2023-07-29T06:58:21;4.85;;;3.15;;
78416;SDS011;67715;46.170;6.140;2023-07-29T07:00:47;4.70;;;2.43;;
78416;SDS011;67715;46.170;6.140;2023-07-29T07:03:12;4.55;;;3.22;;
78416;SDS011;67715;46.170;6.140;2023-07-29T07:05:37;4.63;;;3.30;;
78416;SDS011;67715;46.170;6.140;2023-07-29T07:08:03;5.17;;;3.53;;
78416;SDS011;67715;46.170;6.140;2023-07-29T07:10:28;3.85;;;2.85;;
78416;SDS011;67715;46.170;6.140;2023-07-29T07:12:53;4.43;;;3.30;;
78416;SDS011;67715;46.170;6.140;2023-07-29T07:15:19;3.57;;;2.77;;
78416;SDS011;67715;46.170;6.140;2023-07-29T07:17:44;6.13;;;3.60;;
78416;SDS011;67715;46.170;6.140;2023-07-29T07:20:09;6.00;;;3.97;;
78416;SDS011;67715;46.170;6.140;2023-07-29T07:22:35;5.38;;;3.47;;
78416;SDS011;67715;46.170;6.140;2023-07-29T07:25:01;9.00;;;3.70;;
78416;SDS011;67715;46.170;6.140;2023-07-29T07:27:26;4.53;;;3.70;;
78416;SDS011;67715;46.170;6.140;2023-07-29T07:29:51;6.23;;;3.60;;
78416;SDS011;67715;46.170;6.140;2023-07-29T07:32:16;4.07;;;3.10;;
78416;SDS011;67715;46.170;6.140;2023-07-29T07:34:42;4.43;;;3.20;;
78416;SDS011;67715;46.170;6.140;2023-07-29T07:37:07;6.43;;;3.03;;
78416;SDS011;67715;46.170;6.140;2023-07-29T07:39:32;6.27;;;3.43;;
78416;SDS011;67715;46.170;6.140;2023-07-29T07:41:58;5.67;;;3.20;;
78416;SDS011;67715;46.170;6.140;2023-07-29T07:44:23;4.28;;;3.03;;
78416;SDS011;67715;46.170;6.140;2023-07-29T07:46:51;6.85;;;3.70;;
78416;SDS011;67715;46.170;6.140;2023-07-29T07:49:16;4.28;;;3.10;;
78416;SDS011;67715;46.170;6.140;2023-07-29T07:51:43;5.97;;;3.10;;
78416;SDS011;67715;46.170;6.140;2023-07-29T07:54:08;3.75;;;2.97;;
78416;SDS011;67715;46.170;6.140;2023-07-29T07:56:34;3.50;;;2.57;;
78416;SDS011;67715;46.170;6.140;2023-07-29T07:58:59;4.38;;;3.10;;
78416;SDS011;67715;46.170;6.140;2023-07-29T08:01:24;6.37;;;3.47;;
78416;SDS011;67715;46.170;6.140;2023-07-29T08:03:50;4.97;;;2.83;;
78416;SDS011;67715;46.170;6.140;2023-07-29T08:06:15;5.83;;;3.37;;
78416;SDS011;67715;46.170;6.140;2023-07-29T08:08:40;3.60;;;2.80;;
78416;SDS011;67715;46.170;6.140;2023-07-29T08:11:06;3.77;;;3.07;;
78416;SDS011;67715;46.170;6.140;2023-07-29T08:13:31;4.30;;;3.00;;
78416;SDS011;67715;46.170;6.140;2023-07-29T08:15:56;8.67;;;4.00;;
78416;SDS011;67715;46.170;6.140;2023-07-29T08:18:22;5.13;;;3.50;;
78416;SDS011;67715;46.170;6.140;2023-07-29T08:20:54;4.82;;;3.10;;
78416;SDS011;67715;46.170;6.140;2023-07-29T08:23:20;4.35;;;3.47;;
78416;SDS011;67715;46.170;6.140;2023-07-29T08:25:50;5.35;;;3.28;;
78416;SDS011;67715;46.170;6.140;2023-07-29T08:30:42;6.40;;;3.70;;
78416;SDS011;67715;46.170;6.140;2023-07-29T08:33:07;5.27;;;3.17;;
78416;SDS011;67715;46.170;6.140;2023-07-29T08:35:33;4.47;;;3.60;;
78416;SDS011;67715;46.170;6.140;2023-07-29T08:37:58;5.43;;;3.50;;
78416;SDS011;67715;46.170;6.140;2023-07-29T08:40:25;6.00;;;3.67;;
78416;SDS011;67715;46.170;6.140;2023-07-29T08:42:53;6.57;;;3.47;;
78416;SDS011;67715;46.170;6.140;2023-07-29T08:45:19;6.70;;;4.13;;
78416;SDS011;67715;46.170;6.140;2023-07-29T08:47:44;5.80;;;3.63;;
78416;SDS011;67715;46.170;6.140;2023-07-29T08:50:10;4.00;;;3.20;;
78416;SDS011;67715;46.170;6.140;2023-07-29T08:52:35;7.07;;;3.60;;
78416;SDS011;67715;46.170;6.140;2023-07-29T08:55:01;7.30;;;3.80;;
78416;SDS011;67715;46.170;6.140;2023-07-29T08:57:27;4.47;;;3.50;;
78416;SDS011;67715;46.170;6.140;2023-07-29T08:59:52;5.00;;;3.28;;
78416;SDS011;67715;46.170;6.140;2023-07-29T09:02:17;5.97;;;3.37;;
78416;SDS011;67715;46.170;6.140;2023-07-29T09:04:43;4.60;;;3.33;;
78416;SDS011;67715;46.170;6.140;2023-07-29T09:07:08;5.00;;;3.20;;
78416;SDS011;67715;46.170;6.140;2023-07-29T09:09:34;6.20;;;3.30;;
78416;SDS011;67715;46.170;6.140;2023-07-29T09:12:00;7.60;;;3.15;;
78416;SDS011;67715;46.170;6.140;2023-07-29T09:14:25;6.43;;;3.70;;
78416;SDS011;67715;46.170;6.140;2023-07-29T09:16:51;4.03;;;3.22;;
78416;SDS011;67715;46.170;6.140;2023-07-29T09:19:17;4.23;;;3.40;;
78416;SDS011;67715;46.170;6.140;2023-07-29T09:21:42;4.68;;;3.58;;
78416;SDS011;67715;46.170;6.140;2023-07-29T09:24:07;5.37;;;3.30;;
78416;SDS011;67715;46.170;6.140;2023-07-29T09:26:33;5.68;;;3.20;;
78416;SDS011;67715;46.170;6.140;2023-07-29T09:28:59;4.80;;;3.03;;
78416;SDS011;67715;46.170;6.140;2023-07-29T09:31:26;6.57;;;3.40;;
78416;SDS011;67715;46.170;6.140;2023-07-29T09:33:55;5.07;;;3.15;;
78416;SDS011;67715;46.170;6.140;2023-07-29T09:38:48;27.67;;;4.60;;
78416;SDS011;67715;46.170;6.140;2023-07-29T09:41:17;5.05;;;3.28;;
78416;SDS011;67715;46.170;6.140;2023-07-29T09:43:43;7.00;;;2.90;;
78416;SDS011;67715;46.170;6.140;2023-07-29T09:46:08;5.63;;;2.77;;
78416;SDS011;67715;46.170;6.140;2023-07-29T09:48:37;5.97;;;2.67;;
78416;SDS011;67715;46.170;6.140;2023-07-29T09:51:10;4.82;;;3.20;;
78416;SDS011;67715;46.170;6.140;2023-07-29T09:53:39;3.58;;;2.78;;
78416;SDS011;67715;46.170;6.140;2023-07-29T09:56:08;5.25;;;2.70;;
78416;SDS011;67715;46.170;6.140;2023-07-29T09:58:34;4.17;;;2.80;;
78416;SDS011;67715;46.170;6.140;2023-07-29T10:01:00;5.53;;;3.00;;
78416;SDS011;67715;46.170;6.140;2023-07-29T10:03:26;5.05;;;3.08;;
78416;SDS011;67715;46.170;6.140;2023-07-29T10:05:51;4.43;;;3.20;;
78416;SDS011;67715;46.170;6.140;2023-07-29T10:08:16;4.93;;;3.38;;
78416;SDS011;67715;46.170;6.140;2023-07-29T10:10:43;5.15;;;3.30;;
78416;SDS011;67715;46.170;6.140;2023-07-29T10:13:09;5.47;;;3.22;;
78416;SDS011;67715;46.170;6.140;2023-07-29T10:15:34;3.95;;;3.08;;
78416;SDS011;67715;46.170;6.140;2023-07-29T10:18:01;4.97;;;2.97;;
78416;SDS011;67715;46.170;6.140;2023-07-29T10:20:27;3.92;;;3.10;;
78416;SDS011;67715;46.170;6.140;2023-07-29T10:22:53;4.18;;;3.00;;
78416;SDS011;67715;46.170;6.140;2023-07-29T10:25:23;6.20;;;3.40;;
78416;SDS011;67715;46.170;6.140;2023-07-29T10:27:56;4.78;;;2.92;;
78416;SDS011;67715;46.170;6.140;2023-07-29T10:30:30;3.63;;;2.92;;
78416;SDS011;67715;46.170;6.140;2023-07-29T10:32:55;5.43;;;2.83;;
78416;SDS011;67715;46.170;6.140;2023-07-29T10:35:23;6.45;;;3.10;;
78416;SDS011;67715;46.170;6.140;2023-07-29T10:37:49;6.93;;;3.70;;
78416;SDS011;67715;46.170;6.140;2023-07-29T10:40:16;4.40;;;3.38;;
78416;SDS011;67715;46.170;6.140;2023-07-29T10:42:59;5.55;;;3.10;;
78416;SDS011;67715;46.170;6.140;2023-07-29T10:45:28;4.35;;;2.70;;
78416;SDS011;67715;46.170;6.140;2023-07-29T10:54:03;3.83;;;2.72;;
78416;SDS011;67715;46.170;6.140;2023-07-29T10:58:56;5.28;;;3.30;;
78416;SDS011;67715;46.170;6.140;2023-07-29T11:01:26;4.15;;;2.22;;
78416;SDS011;67715;46.170;6.140;2023-07-29T11:04:21;3.08;;;2.50;;
78416;SDS011;67715;46.170;6.140;2023-07-29T11:12:33;4.25;;;2.55;;
78416;SDS011;67715;46.170;6.140;2023-07-29T11:17:35;5.03;;;3.17;;
78416;SDS011;67715;46.170;6.140;2023-07-29T11:20:01;2.92;;;2.33;;
78416;SDS011;67715;46.170;6.140;2023-07-29T11:22:28;3.30;;;2.88;;
78416;SDS011;67715;46.170;6.140;2023-07-29T11:24:54;3.30;;;2.42;;
78416;SDS011;67715;46.170;6.140;2023-07-29T11:27:19;3.35;;;2.33;;
78416;SDS011;67715;46.170;6.140;2023-07-29T11:29:45;4.55;;;2.72;;
78416;SDS011;67715;46.170;6.140;2023-07-29T11:32:11;3.80;;;2.50;;
78416;SDS011;67715;46.170;6.140;2023-07-29T11:34:37;3.83;;;2.63;;
78416;SDS011;67715;46.170;6.140;2023-07-29T11:37:02;2.23;;;1.77;;
78416;SDS011;67715;46.170;6.140;2023-07-29T11:39:27;2.78;;;1.90;;
78416;SDS011;67715;46.170;6.140;2023-07-29T11:41:53;2.87;;;1.90;;
78416;SDS011;67715;46.170;6.140;2023-07-29T11:44:18;2.57;;;1.80;;
78416;SDS011;67715;46.170;6.140;2023-07-29T11:46:43;3.30;;;1.70;;
78416;SDS011;67715;46.170;6.140;2023-07-29T11:49:09;3.33;;;1.70;;
78416;SDS011;67715;46.170;6.140;2023-07-29T11:51:35;2.42;;;1.77;;
78416;SDS011;67715;46.170;6.140;2023-07-29T11:54:01;2.53;;;1.60;;
78416;SDS011;67715;46.170;6.140;2023-07-29T11:56:27;2.25;;;1.52;;
78416;SDS011;67715;46.170;6.140;2023-07-29T11:58:53;3.10;;;1.73;;
78416;SDS011;67715;46.170;6.140;2023-07-29T12:01:18;3.20;;;1.70;;
78416;SDS011;67715;46.170;6.140;2023-07-29T12:03:44;2.88;;;1.80;;
78416;SDS011;67715;46.170;6.140;2023-07-29T12:06:09;3.00;;;1.80;;
78416;SDS011;67715;46.170;6.140;2023-07-29T12:08:35;2.60;;;1.80;;
78416;SDS011;67715;46.170;6.140;2023-07-29T12:11:00;2.75;;;2.08;;
78416;SDS011;67715;46.170;6.140;2023-07-29T12:13:26;2.78;;;2.00;;
78416;SDS011;67715;46.170;6.140;2023-07-29T12:15:51;3.05;;;2.03;;
78416;SDS011;67715;46.170;6.140;2023-07-29T12:18:16;3.67;;;1.95;;
78416;SDS011;67715;46.170;6.140;2023-07-29T12:20:43;3.70;;;1.70;;
78416;SDS011;67715;46.170;6.140;2023-07-29T12:23:08;3.17;;;1.92;;
78416;SDS011;67715;46.170;6.140;2023-07-29T12:25:33;3.00;;;1.97;;
78416;SDS011;67715;46.170;6.140;2023-07-29T12:28:06;4.05;;;2.55;;
78416;SDS011;67715;46.170;6.140;2023-07-29T12:30:31;5.53;;;3.20;;
78416;SDS011;67715;46.170;6.140;2023-07-29T12:32:57;3.38;;;2.40;;
78416;SDS011;67715;46.170;6.140;2023-07-29T12:35:22;3.25;;;2.10;;
78416;SDS011;67715;46.170;6.140;2023-07-29T12:37:57;3.55;;;2.50;;
78416;SDS011;67715;46.170;6.140;2023-07-29T12:40:24;3.42;;;2.00;;
78416;SDS011;67715;46.170;6.140;2023-07-29T12:42:50;2.67;;;1.73;;
78416;SDS011;67715;46.170;6.140;2023-07-29T12:45:16;3.42;;;2.15;;
78416;SDS011;67715;46.170;6.140;2023-07-29T12:47:42;2.15;;;1.67;;
78416;SDS011;67715;46.170;6.140;2023-07-29T12:50:08;2.93;;;1.70;;
78416;SDS011;67715;46.170;6.140;2023-07-29T12:52:33;4.38;;;1.98;;
78416;SDS011;67715;46.170;6.140;2023-07-29T12:54:58;4.23;;;2.40;;
78416;SDS011;67715;46.170;6.140;2023-07-29T12:57:24;2.73;;;2.03;;
78416;SDS011;67715;46.170;6.140;2023-07-29T12:59:49;3.87;;;1.73;;
78416;SDS011;67715;46.170;6.140;2023-07-29T13:02:14;2.93;;;1.93;;
78416;SDS011;67715;46.170;6.140;2023-07-29T13:04:40;6.77;;;4.40;;
78416;SDS011;67715;46.170;6.140;2023-07-29T13:07:05;3.80;;;2.33;;
78416;SDS011;67715;46.170;6.140;2023-07-29T13:09:31;4.95;;;3.35;;
78416;SDS011;67715;46.170;6.140;2023-07-29T13:11:56;4.93;;;2.67;;
78416;SDS011;67715;46.170;6.140;2023-07-29T13:14:22;5.13;;;2.37;;
78416;SDS011;67715;46.170;6.140;2023-07-29T13:16:47;2.67;;;2.20;;
78416;SDS011;67715;46.170;6.140;2023-07-29T13:19:12;3.13;;;2.10;;
78416;SDS011;67715;46.170;6.140;2023-07-29T13:21:38;5.33;;;3.10;;
78416;SDS011;67715;46.170;6.140;2023-07-29T13:24:03;2.90;;;2.30;;
78416;SDS011;67715;46.170;6.140;2023-07-29T13:26:28;3.33;;;2.13;;
78416;SDS011;67715;46.170;6.140;2023-07-29T13:28:54;3.17;;;2.00;;
78416;SDS011;67715;46.170;6.140;2023-07-29T13:31:20;3.70;;;2.08;;
78416;SDS011;67715;46.170;6.140;2023-07-29T13:33:46;3.00;;;1.97;;
78416;SDS011;67715;46.170;6.140;2023-07-29T13:36:11;4.30;;;2.30;;
78416;SDS011;67715;46.170;6.140;2023-07-29T13:38:36;2.30;;;1.73;;
78416;SDS011;67715;46.170;6.140;2023-07-29T13:41:02;4.63;;;2.10;;
78416;SDS011;67715;46.170;6.140;2023-07-29T13:43:28;2.95;;;2.00;;
78416;SDS011;67715;46.170;6.140;2023-07-29T13:45:53;2.90;;;1.88;;
78416;SDS011;67715;46.170;6.140;2023-07-29T13:48:18;3.90;;;1.77;;
78416;SDS011;67715;46.170;6.140;2023-07-29T13:50:44;2.47;;;1.65;;
78416;SDS011;67715;46.170;6.140;2023-07-29T13:53:10;4.82;;;1.95;;
78416;SDS011;67715;46.170;6.140;2023-07-29T13:55:35;2.70;;;1.63;;
78416;SDS011;67715;46.170;6.140;2023-07-29T13:58:01;2.22;;;1.67;;
78416;SDS011;67715;46.170;6.140;2023-07-29T14:00:26;2.93;;;1.87;;
78416;SDS011;67715;46.170;6.140;2023-07-29T14:02:52;3.33;;;1.77;;
78416;SDS011;67715;46.170;6.140;2023-07-29T14:05:17;3.50;;;1.83;;
78416;SDS011;67715;46.170;6.140;2023-07-29T14:07:42;2.83;;;1.87;;
78416;SDS011;67715;46.170;6.140;2023-07-29T14:10:07;2.63;;;1.90;;
78416;SDS011;67715;46.170;6.140;2023-07-29T14:12:33;4.07;;;2.30;;
78416;SDS011;67715;46.170;6.140;2023-07-29T14:14:59;6.38;;;2.40;;
78416;SDS011;67715;46.170;6.140;2023-07-29T14:17:24;3.37;;;2.50;;
78416;SDS011;67715;46.170;6.140;2023-07-29T14:19:49;2.78;;;2.20;;
78416;SDS011;67715;46.170;6.140;2023-07-29T14:22:15;5.80;;;2.47;;
78416;SDS011;67715;46.170;6.140;2023-07-29T14:24:40;3.87;;;2.57;;
78416;SDS011;67715;46.170;6.140;2023-07-29T14:27:05;4.47;;;2.80;;
78416;SDS011;67715;46.170;6.140;2023-07-29T14:29:31;6.13;;;2.72;;
78416;SDS011;67715;46.170;6.140;2023-07-29T14:31:56;7.28;;;3.17;;
78416;SDS011;67715;46.170;6.140;2023-07-29T14:34:22;4.28;;;2.30;;
78416;SDS011;67715;46.170;6.140;2023-07-29T14:36:47;5.83;;;2.87;;
78416;SDS011;67715;46.170;6.140;2023-07-29T14:39:12;6.80;;;2.80;;
78416;SDS011;67715;46.170;6.140;2023-07-29T14:41:38;4.20;;;2.60;;
78416;SDS011;67715;46.170;6.140;2023-07-29T14:44:03;5.27;;;2.37;;
78416;SDS011;67715;46.170;6.140;2023-07-29T14:46:28;7.20;;;3.03;;
78416;SDS011;67715;46.170;6.140;2023-07-29T14:48:54;4.50;;;2.87;;
78416;SDS011;67715;46.170;6.140;2023-07-29T14:51:19;7.67;;;2.80;;
78416;SDS011;67715;46.170;6.140;2023-07-29T14:53:44;4.28;;;2.67;;
78416;SDS011;67715;46.170;6.140;2023-07-29T14:56:10;8.57;;;3.10;;
78416;SDS011;67715;46.170;6.140;2023-07-29T14:58:35;5.70;;;3.20;;
78416;SDS011;67715;46.170;6.140;2023-07-29T15:01:00;4.37;;;3.17;;
78416;SDS011;67715;46.170;6.140;2023-07-29T15:03:26;4.72;;;3.70;;
78416;SDS011;67715;46.170;6.140;2023-07-29T15:05:51;6.53;;;4.00;;
78416;SDS011;67715;46.170;6.140;2023-07-29T15:08:16;5.97;;;3.37;;